Time;durP1;ratioP1;P1;durP2;ratioP2;P2;SDS_P1;SDS_P2;PMS_P1;PMS_P2;Temp;Humidity;BMP_temperature;BMP_pressure;BME280_temperature;BME280_humidity;BME280_pressure;Samples;Min_cycle;Max_cycle;Signal;HPM_P1;HPM_P2
2021/05/19 00:01:45;;;;;;;2.03;1.30;;;6.90;99.90;;;;;;5030225;28;20418;-59
2021/05/19 00:04:10;;;;;;;1.63;1.50;;;7.00;99.90;;;;;;5022297;28;20478;-59
2021/05/19 00:06:37;;;;;;;1.27;1.20;;;7.00;99.90;;;;;;5011590;28;20466;-58
2021/05/19 00:09:05;;;;;;;1.50;1.20;;;7.00;99.90;;;;;;5012646;28;20717;-59
2021/05/19 00:11:31;;;;;;;1.67;1.57;;;7.00;99.90;;;;;;5000264;28;20467;-59
2021/05/19 00:13:56;;;;;;;2.40;1.40;;;7.00;99.90;;;;;;5014763;28;20456;-59
2021/05/19 00:16:22;;;;;;;1.80;1.40;;;7.00;99.90;;;;;;5015336;28;20522;-58
2021/05/19 00:18:48;;;;;;;4.57;1.73;;;7.00;99.90;;;;;;5031492;28;20291;-59
2021/05/19 00:21:14;;;;;;;2.50;1.40;;;7.00;99.90;;;;;;5019057;28;20183;-59
2021/05/19 00:23:39;;;;;;;1.50;1.40;;;6.90;99.90;;;;;;4999350;28;20443;-60
2021/05/19 00:26:05;;;;;;;1.63;1.53;;;7.00;99.90;;;;;;4992296;28;20184;-59
2021/05/19 00:28:32;;;;;;;1.40;1.30;;;7.00;99.90;;;;;;5011371;28;20260;-59
2021/05/19 00:31:00;;;;;;;1.30;1.20;;;7.00;99.90;;;;;;5028005;28;20253;-59
2021/05/19 00:33:26;;;;;;;1.57;1.47;;;7.00;99.90;;;;;;5024924;28;20500;-59
2021/05/19 00:35:52;;;;;;;3.57;1.50;;;7.00;99.90;;;;;;5036060;28;20429;-60
2021/05/19 00:38:18;;;;;;;1.50;1.40;;;7.00;99.90;;;;;;5029738;28;20195;-59
2021/05/19 00:40:44;;;;;;;5.03;1.53;;;7.00;99.90;;;;;;5010432;28;20178;-60
2021/05/19 00:43:10;;;;;;;2.50;1.40;;;7.00;99.90;;;;;;5003059;28;20459;-60
2021/05/19 00:45:36;;;;;;;3.17;1.63;;;7.00;99.90;;;;;;5022733;28;20810;-59
2021/05/19 00:48:03;;;;;;;1.93;1.40;;;7.00;99.90;;;;;;5027094;28;20184;-59
2021/05/19 00:50:30;;;;;;;2.10;1.33;;;7.00;99.90;;;;;;5012413;28;20441;-59
2021/05/19 00:52:55;;;;;;;4.70;1.70;;;6.90;99.90;;;;;;5028698;28;20469;-58
2021/05/19 00:55:22;;;;;;;3.67;1.50;;;6.90;99.90;;;;;;5029795;28;20461;-59
2021/05/19 00:57:50;;;;;;;2.10;1.63;;;6.90;99.90;;;;;;5038984;28;20203;-59
2021/05/19 01:00:17;;;;;;;2.20;1.47;;;6.90;99.90;;;;;;5022899;28;20526;-59
2021/05/19 01:02:43;;;;;;;1.63;1.53;;;6.80;99.90;;;;;;5017815;28;20442;-60
2021/05/19 01:05:22;;;;;;;1.80;1.40;;;6.90;99.90;;;;;;5011909;28;20437;-59
2021/05/19 01:10:46;;;;;;;1.90;1.80;;;6.90;99.90;;;;;;4987988;28;20947;-59
2021/05/19 01:13:12;;;;;;;1.53;1.43;;;6.90;99.90;;;;;;5010290;28;20427;-59
2021/05/19 01:15:39;;;;;;;2.00;1.40;;;6.90;99.90;;;;;;5012017;28;20510;-58
2021/05/19 01:18:06;;;;;;;1.57;1.40;;;6.90;99.90;;;;;;5034769;28;20488;-58
2021/05/19 01:20:33;;;;;;;3.40;1.57;;;6.90;99.90;;;;;;5018484;28;20533;-59
2021/05/19 01:23:00;;;;;;;3.20;1.30;;;6.90;99.90;;;;;;4999551;28;20459;-57
2021/05/19 01:25:27;;;;;;;1.60;1.50;;;7.00;99.90;;;;;;5020441;28;20438;-58
2021/05/19 01:27:54;;;;;;;3.57;1.60;;;6.90;99.90;;;;;;5028672;28;20445;-59
2021/05/19 01:30:20;;;;;;;2.10;1.40;;;6.90;99.90;;;;;;5011936;28;20440;-59
2021/05/19 01:32:46;;;;;;;2.77;1.70;;;6.90;99.90;;;;;;5006615;28;20999;-58
2021/05/19 01:35:13;;;;;;;3.83;1.83;;;6.90;99.90;;;;;;5017434;28;20598;-58
2021/05/19 01:37:39;;;;;;;1.60;1.50;;;7.00;99.90;;;;;;5035450;28;20457;-58
2021/05/19 01:40:06;;;;;;;7.57;1.60;;;7.00;99.90;;;;;;5029687;28;20426;-59
2021/05/19 01:42:32;;;;;;;2.20;1.60;;;7.00;99.90;;;;;;5025825;28;20441;-58
2021/05/19 01:44:58;;;;;;;1.90;1.60;;;7.00;99.90;;;;;;5022449;28;20621;-58
2021/05/19 01:47:57;;;;;;;2.40;1.80;;;7.00;99.90;;;;;;5015238;28;20213;-58
2021/05/19 01:50:32;;;;;;;1.53;1.40;;;7.10;99.90;;;;;;5016668;28;20497;-59
2021/05/19 01:53:02;;;;;;;1.60;1.50;;;7.10;99.90;;;;;;5017333;28;20532;-59
2021/05/19 01:55:29;;;;;;;1.90;1.80;;;7.10;99.90;;;;;;5021441;28;20501;-58
2021/05/19 01:57:56;;;;;;;1.80;1.70;;;7.10;99.90;;;;;;5008096;28;20798;-59
2021/05/19 02:00:24;;;;;;;2.03;1.93;;;7.10;99.90;;;;;;5016259;28;20439;-58
2021/05/19 02:02:59;;;;;;;2.50;1.83;;;7.10;99.90;;;;;;5019319;28;20944;-58
2021/05/19 02:05:27;;;;;;;2.53;1.60;;;7.10;99.90;;;;;;5036381;28;20901;-59
2021/05/19 02:07:54;;;;;;;5.40;1.80;;;7.10;99.90;;;;;;5017469;28;20441;-58
2021/05/19 02:10:21;;;;;;;6.50;1.90;;;7.10;99.90;;;;;;5017231;28;20426;-58
2021/05/19 02:12:47;;;;;;;3.47;1.60;;;7.10;99.90;;;;;;5015991;28;20461;-59
2021/05/19 02:15:15;;;;;;;2.80;2.30;;;7.10;99.90;;;;;;5017083;28;20427;-58
2021/05/19 02:17:41;;;;;;;1.60;1.50;;;7.10;99.90;;;;;;5017093;28;20454;-58
2021/05/19 02:20:13;;;;;;;1.93;1.80;;;7.10;99.90;;;;;;5035137;28;20439;-58
2021/05/19 02:22:42;;;;;;;2.77;1.87;;;7.10;99.90;;;;;;5017806;28;20184;-58
2021/05/19 02:25:08;;;;;;;6.70;2.00;;;7.00;99.90;;;;;;5015594;28;20439;-59
2021/05/19 02:27:34;;;;;;;2.57;1.90;;;7.00;99.90;;;;;;5022655;28;20518;-59
2021/05/19 02:30:00;;;;;;;1.80;1.70;;;7.00;99.90;;;;;;5013672;28;20900;-59
2021/05/19 02:32:27;;;;;;;2.33;2.00;;;7.00;99.90;;;;;;5020005;28;20215;-58
2021/05/19 02:34:53;;;;;;;1.80;1.70;;;7.00;99.90;;;;;;5012847;28;20172;-59
2021/05/19 02:37:19;;;;;;;2.23;1.93;;;7.00;99.90;;;;;;5021717;28;20463;-58
2021/05/19 02:39:44;;;;;;;3.87;1.77;;;7.00;99.90;;;;;;5023392;28;20462;-57
2021/05/19 02:42:10;;;;;;;2.90;1.90;;;6.90;99.90;;;;;;5020239;28;20229;-58
2021/05/19 02:44:36;;;;;;;3.50;1.80;;;6.90;99.90;;;;;;5013624;28;20203;-59
2021/05/19 02:47:02;;;;;;;2.70;2.00;;;6.80;99.90;;;;;;5028883;28;20215;-58
2021/05/19 02:49:28;;;;;;;4.53;2.00;;;6.80;99.90;;;;;;5023540;28;20430;-59
2021/05/19 02:51:54;;;;;;;1.67;1.57;;;6.80;99.90;;;;;;5017436;28;20993;-58
2021/05/19 02:54:20;;;;;;;2.03;1.80;;;6.80;99.90;;;;;;5027766;28;20215;-59
2021/05/19 02:56:45;;;;;;;2.70;1.67;;;6.70;99.90;;;;;;5026274;28;20441;-59
2021/05/19 02:59:11;;;;;;;2.33;2.00;;;6.70;99.90;;;;;;5034592;28;20206;-58
2021/05/19 03:01:36;;;;;;;2.00;1.70;;;6.70;99.90;;;;;;5037105;28;20202;-59
2021/05/19 03:04:02;;;;;;;4.20;2.10;;;6.60;99.90;;;;;;5028924;28;20234;-60
2021/05/19 03:06:28;;;;;;;5.47;2.90;;;6.60;99.90;;;;;;5027686;28;20653;-59
2021/05/19 03:08:54;;;;;;;6.27;3.20;;;6.60;99.90;;;;;;5000296;28;20437;-61
2021/05/19 03:11:20;;;;;;;4.80;3.47;;;6.50;99.90;;;;;;4995421;28;20275;-59
2021/05/19 03:13:46;;;;;;;6.33;2.80;;;6.50;99.90;;;;;;5038733;28;20282;-60
2021/05/19 03:16:12;;;;;;;4.50;2.07;;;6.40;99.90;;;;;;5018681;28;20602;-59
2021/05/19 03:18:38;;;;;;;1.90;1.80;;;6.40;99.90;;;;;;5011860;28;20547;-59
2021/05/19 03:21:04;;;;;;;2.10;1.90;;;6.30;99.90;;;;;;5027851;28;20499;-60
2021/05/19 03:23:30;;;;;;;9.13;2.10;;;6.30;99.90;;;;;;5021436;28;20207;-59
2021/05/19 03:25:57;;;;;;;6.53;1.67;;;6.20;99.90;;;;;;5010677;28;20395;-59
2021/05/19 03:28:23;;;;;;;5.30;1.90;;;6.10;99.90;;;;;;4996110;28;21043;-59
2021/05/19 03:30:50;;;;;;;1.67;1.57;;;6.10;99.90;;;;;;5019338;28;21019;-60
2021/05/19 03:33:16;;;;;;;3.20;1.90;;;6.00;99.90;;;;;;5019735;28;20470;-59
2021/05/19 03:35:42;;;;;;;8.30;1.80;;;6.00;99.90;;;;;;5011214;28;20415;-59
2021/05/19 03:38:08;;;;;;;5.33;1.63;;;6.00;99.90;;;;;;5036708;28;20470;-60
2021/05/19 03:40:34;;;;;;;2.47;1.90;;;5.90;99.90;;;;;;5034088;28;20435;-60
2021/05/19 03:43:00;;;;;;;6.20;2.20;;;5.90;99.90;;;;;;5026675;28;20250;-59
2021/05/19 03:45:26;;;;;;;7.07;2.50;;;5.90;99.90;;;;;;5016462;28;20435;-59
2021/05/19 03:47:53;;;;;;;3.47;2.07;;;5.90;99.90;;;;;;5017301;28;20207;-59
2021/05/19 03:50:25;;;;;;;2.47;2.13;;;5.90;99.90;;;;;;5012959;28;20931;-59
2021/05/19 03:52:51;;;;;;;3.50;1.80;;;5.90;99.90;;;;;;5032629;28;20524;-59
2021/05/19 03:55:16;;;;;;;2.53;2.33;;;5.90;99.90;;;;;;5014950;28;20438;-59
2021/05/19 03:57:42;;;;;;;2.30;2.10;;;6.00;99.90;;;;;;5031552;28;20458;-59
2021/05/19 04:00:12;;;;;;;2.10;1.80;;;6.00;99.90;;;;;;5027301;28;20189;-58
2021/05/19 04:02:38;;;;;;;3.67;2.43;;;6.00;99.90;;;;;;5006290;28;20195;-59
2021/05/19 04:05:04;;;;;;;2.70;2.37;;;6.00;99.90;;;;;;5023788;28;20473;-60
2021/05/19 04:07:30;;;;;;;3.00;2.07;;;6.00;99.90;;;;;;5016459;28;20426;-60
2021/05/19 04:09:55;;;;;;;2.40;2.20;;;6.00;99.90;;;;;;4998877;28;20523;-60
2021/05/19 04:12:21;;;;;;;3.00;2.30;;;6.00;99.90;;;;;;5025454;28;20190;-60
2021/05/19 04:14:47;;;;;;;5.07;2.03;;;6.00;99.90;;;;;;5019451;28;20688;-59
2021/05/19 04:17:12;;;;;;;2.43;2.20;;;5.90;99.90;;;;;;5018548;28;20444;-59
2021/05/19 04:19:38;;;;;;;6.10;2.37;;;5.90;99.90;;;;;;5005593;28;20203;-59
2021/05/19 04:22:04;;;;;;;6.70;2.47;;;5.90;99.90;;;;;;5031227;28;20253;-59
2021/05/19 04:24:29;;;;;;;3.63;2.47;;;5.90;99.90;;;;;;5034246;28;20272;-58
2021/05/19 04:26:55;;;;;;;3.57;3.27;;;5.90;99.90;;;;;;5010703;28;20188;-59
2021/05/19 04:29:21;;;;;;;3.47;2.33;;;5.90;99.90;;;;;;4998950;28;20180;-60
2021/05/19 04:31:46;;;;;;;3.77;2.13;;;5.90;99.90;;;;;;5018370;28;20195;-59
2021/05/19 04:34:12;;;;;;;3.30;2.13;;;5.90;99.90;;;;;;5017765;28;20257;-60
2021/05/19 04:36:38;;;;;;;2.57;2.13;;;6.00;99.90;;;;;;5012093;28;20192;-60
2021/05/19 04:39:05;;;;;;;5.90;2.20;;;5.90;99.90;;;;;;5019312;28;20203;-60
2021/05/19 04:41:30;;;;;;;2.50;2.30;;;6.00;99.90;;;;;;5021713;28;20184;-61
2021/05/19 04:43:56;;;;;;;6.40;2.40;;;5.90;99.90;;;;;;5024350;28;20465;-58
2021/05/19 04:46:22;;;;;;;2.90;2.20;;;5.90;99.90;;;;;;5019255;28;20181;-59
2021/05/19 04:48:49;;;;;;;2.77;2.40;;;5.90;99.90;;;;;;5023384;28;20192;-59
2021/05/19 04:51:15;;;;;;;2.63;2.43;;;5.90;99.90;;;;;;5031992;28;20180;-59
2021/05/19 04:53:41;;;;;;;5.57;2.53;;;6.00;99.90;;;;;;5037229;28;20470;-59
2021/05/19 04:56:06;;;;;;;2.67;2.47;;;6.00;99.90;;;;;;5026801;28;20451;-58
2021/05/19 04:58:32;;;;;;;3.00;2.80;;;6.10;99.90;;;;;;5011178;28;20609;-58
2021/05/19 05:00:58;;;;;;;4.30;2.90;;;6.20;99.90;;;;;;5017488;28;20190;-60
2021/05/19 05:03:24;;;;;;;2.70;2.50;;;6.30;99.90;;;;;;5020315;28;20229;-60
2021/05/19 05:05:55;;;;;;;4.00;2.70;;;6.40;99.90;;;;;;5027778;28;20176;-60
2021/05/19 05:08:20;;;;;;;2.10;1.90;;;6.30;99.90;;;;;;5009606;28;20431;-60
2021/05/19 05:10:46;;;;;;;3.77;2.27;;;6.30;99.90;;;;;;5024372;28;20444;-60
2021/05/19 05:13:12;;;;;;;2.40;2.20;;;6.30;99.90;;;;;;5019522;28;20218;-60
2021/05/19 05:15:37;;;;;;;6.63;3.00;;;6.20;99.90;;;;;;5018864;28;20589;-59
2021/05/19 05:18:03;;;;;;;2.30;2.00;;;6.20;99.90;;;;;;5019709;28;20260;-59
2021/05/19 05:20:29;;;;;;;3.47;2.20;;;6.20;99.90;;;;;;5010173;28;20176;-60
2021/05/19 05:22:54;;;;;;;2.17;2.07;;;6.10;99.90;;;;;;5021067;28;20195;-58
2021/05/19 05:25:22;;;;;;;3.57;2.30;;;6.10;99.90;;;;;;5014433;28;20275;-58
2021/05/19 05:27:48;;;;;;;6.93;2.03;;;6.10;99.90;;;;;;5016474;28;20645;-59
2021/05/19 05:30:15;;;;;;;3.27;2.40;;;6.00;99.90;;;;;;5028955;28;20521;-59
2021/05/19 05:32:41;;;;;;;3.37;2.20;;;6.00;99.90;;;;;;5020482;28;20427;-60
2021/05/19 05:35:07;;;;;;;2.53;2.27;;;5.90;99.90;;;;;;5015147;28;20550;-60
2021/05/19 05:37:33;;;;;;;2.00;1.90;;;5.90;99.90;;;;;;5009875;28;20834;-57
2021/05/19 05:39:59;;;;;;;5.00;2.70;;;5.90;99.90;;;;;;5000994;28;20441;-58
2021/05/19 05:42:27;;;;;;;3.03;2.67;;;5.80;99.90;;;;;;5012116;28;20861;-59
2021/05/19 05:44:53;;;;;;;2.63;2.23;;;5.80;99.90;;;;;;5000750;28;20187;-59
2021/05/19 05:47:19;;;;;;;2.77;2.43;;;5.90;99.90;;;;;;5020646;28;20438;-58
2021/05/19 05:49:45;;;;;;;4.90;2.60;;;5.90;99.90;;;;;;5017170;28;21009;-58
2021/05/19 05:52:10;;;;;;;5.90;2.90;;;6.00;99.90;;;;;;5016484;28;20191;-59
2021/05/19 05:54:36;;;;;;;4.57;3.07;;;6.20;99.90;;;;;;4995252;28;20226;-58
2021/05/19 05:57:03;;;;;;;4.50;3.07;;;6.50;99.90;;;;;;5019140;28;20212;-59
2021/05/19 05:59:29;;;;;;;4.93;3.53;;;6.80;99.90;;;;;;5019747;28;20462;-58
2021/05/19 06:01:55;;;;;;;5.90;3.03;;;6.90;99.90;;;;;;5010826;28;20438;-61
2021/05/19 06:04:21;;;;;;;3.27;2.90;;;7.00;99.90;;;;;;5011326;28;20468;-59
2021/05/19 06:06:46;;;;;;;3.50;3.20;;;6.90;99.90;;;;;;5016196;28;20903;-59
2021/05/19 06:09:12;;;;;;;3.13;2.83;;;6.90;99.90;;;;;;5030092;23;20699;-60
2021/05/19 06:11:38;;;;;;;4.77;2.90;;;6.90;99.90;;;;;;4998061;28;20162;-58
2021/05/19 06:14:03;;;;;;;6.43;3.50;;;6.90;99.90;;;;;;5000580;28;20844;-57
2021/05/19 06:16:29;;;;;;;3.67;3.10;;;7.00;99.90;;;;;;4998679;28;20180;-61
2021/05/19 06:18:55;;;;;;;3.00;2.73;;;7.00;99.90;;;;;;5021444;28;20208;-62
2021/05/19 06:21:21;;;;;;;3.90;3.20;;;7.00;99.90;;;;;;5001524;28;20185;-61
2021/05/19 06:23:46;;;;;;;2.87;2.67;;;7.00;99.90;;;;;;5001003;28;20189;-57
2021/05/19 06:26:12;;;;;;;4.90;3.10;;;7.20;99.90;;;;;;4988558;28;20558;-61
2021/05/19 06:28:37;;;;;;;5.40;3.30;;;7.30;99.90;;;;;;4985043;28;20669;-58
2021/05/19 06:31:03;;;;;;;3.90;3.57;;;7.40;99.90;;;;;;4989068;28;20226;-60
2021/05/19 06:33:29;;;;;;;5.40;3.73;;;7.60;99.90;;;;;;4985541;28;20221;-58
2021/05/19 06:35:55;;;;;;;7.17;3.90;;;7.90;99.90;;;;;;4976542;28;20192;-59
2021/05/19 06:38:21;;;;;;;6.87;3.90;;;8.10;99.90;;;;;;4985691;28;20209;-59
2021/05/19 06:40:47;;;;;;;10.40;3.90;;;8.40;99.90;;;;;;4983216;28;20871;-57
2021/05/19 06:43:13;;;;;;;15.03;4.00;;;8.70;99.90;;;;;;4988383;28;20252;-58
2021/05/19 06:45:39;;;;;;;6.47;4.03;;;8.90;99.90;;;;;;4982084;28;20527;-58
2021/05/19 06:48:05;;;;;;;5.57;3.60;;;9.10;99.90;;;;;;4980192;28;20189;-56
2021/05/19 06:50:30;;;;;;;4.10;3.70;;;9.30;99.90;;;;;;4984563;28;20224;-59
2021/05/19 06:52:56;;;;;;;4.53;3.50;;;9.50;99.90;;;;;;4986492;28;20969;-58
2021/05/19 06:55:23;;;;;;;6.57;3.03;;;9.70;99.90;;;;;;4987056;28;20197;-58
2021/05/19 06:57:49;;;;;;;8.10;3.30;;;10.00;98.60;;;;;;4981054;28;20305;-57
2021/05/19 07:00:15;;;;;;;2.90;2.33;;;10.10;97.50;;;;;;4982602;28;20543;-60
2021/05/19 07:02:41;;;;;;;5.47;2.37;;;10.20;97.40;;;;;;4982903;28;20447;-59
2021/05/19 07:05:08;;;;;;;4.57;2.10;;;10.20;94.80;;;;;;4986069;28;20436;-57
2021/05/19 07:07:34;;;;;;;2.43;2.00;;;10.10;94.10;;;;;;4980389;28;20827;-59
2021/05/19 07:10:00;;;;;;;3.60;2.43;;;10.00;94.70;;;;;;4987761;28;20468;-59
2021/05/19 07:12:26;;;;;;;2.57;2.37;;;10.00;95.70;;;;;;4985213;28;20440;-58
2021/05/19 07:14:57;;;;;;;2.73;2.30;;;10.00;95.30;;;;;;4978131;28;20564;-59
2021/05/19 07:17:23;;;;;;;3.73;2.50;;;10.00;95.20;;;;;;4981763;28;20204;-57
2021/05/19 07:19:48;;;;;;;3.30;2.73;;;9.90;96.00;;;;;;4987727;28;21019;-58
2021/05/19 07:22:15;;;;;;;2.60;2.27;;;9.90;94.80;;;;;;4990167;28;20621;-60
2021/05/19 07:24:40;;;;;;;4.10;2.33;;;9.80;93.80;;;;;;5002164;28;20174;-60
2021/05/19 07:27:06;;;;;;;5.00;2.70;;;9.70;93.80;;;;;;5005601;28;20440;-59
2021/05/19 07:29:32;;;;;;;2.50;2.30;;;9.60;94.20;;;;;;4995399;28;20209;-59
2021/05/19 07:31:59;;;;;;;3.30;2.40;;;9.70;94.60;;;;;;4965889;28;20188;-57
2021/05/19 07:34:25;;;;;;;6.20;2.57;;;9.70;93.90;;;;;;4985152;28;20539;-60
2021/05/19 07:36:51;;;;;;;2.40;2.20;;;9.70;94.60;;;;;;4986710;28;20508;-58
2021/05/19 07:39:18;;;;;;;2.70;2.50;;;9.80;94.70;;;;;;4982998;28;21193;-60
2021/05/19 07:41:43;;;;;;;5.20;2.57;;;9.90;93.80;;;;;;4987084;28;20238;-57
2021/05/19 07:44:09;;;;;;;3.30;2.73;;;9.90;92.80;;;;;;4988195;28;20459;-59
2021/05/19 07:46:37;;;;;;;3.10;2.30;;;9.90;92.50;;;;;;4993426;28;20665;-58
2021/05/19 07:49:03;;;;;;;2.63;2.43;;;10.00;92.80;;;;;;4988477;28;20464;-59
2021/05/19 07:51:29;;;;;;;2.70;2.20;;;10.10;92.40;;;;;;4988854;28;21305;-58
2021/05/19 07:53:55;;;;;;;4.67;2.50;;;10.20;93.00;;;;;;4985493;28;20655;-57
2021/05/19 07:58:57;;;;;;;3.13;2.63;;;10.30;92.90;;;;;;4989427;28;20919;-58
2021/05/19 08:01:54;;;;;;;2.50;2.30;;;10.30;92.20;;;;;;4989197;28;20518;-58
2021/05/19 08:04:15;;;;;;;4.40;2.53;;;10.40;91.00;;;;;;4977005;28;20441;-56
2021/05/19 08:06:40;;;;;;;2.80;2.33;;;10.50;91.10;;;;;;4993416;28;20447;-57
2021/05/19 08:09:06;;;;;;;5.73;2.87;;;10.70;89.80;;;;;;4982062;28;20213;-57
2021/05/19 08:11:33;;;;;;;2.60;2.13;;;10.90;81.30;;;;;;4985284;28;20193;-57
2021/05/19 08:13:59;;;;;;;6.20;2.53;;;11.00;83.60;;;;;;4990647;28;20189;-58
2021/05/19 08:16:25;;;;;;;3.10;2.10;;;11.30;87.70;;;;;;4986346;28;20432;-56
2021/05/19 08:18:51;;;;;;;4.50;1.97;;;11.70;85.50;;;;;;4985118;28;20269;-58
2021/05/19 08:21:16;;;;;;;2.50;2.30;;;11.90;79.10;;;;;;4987503;28;20179;-58
2021/05/19 08:23:42;;;;;;;3.13;2.17;;;11.90;72.40;;;;;;4986384;28;20177;-59
2021/05/19 08:26:08;;;;;;;2.70;2.50;;;11.70;74.30;;;;;;4990559;28;20196;-59
2021/05/19 08:28:35;;;;;;;2.47;2.20;;;11.50;76.90;;;;;;4989555;28;20181;-59
2021/05/19 08:31:01;;;;;;;2.00;1.90;;;11.20;72.40;;;;;;4968822;28;20208;-58
2021/05/19 08:33:27;;;;;;;4.20;2.20;;;10.90;78.00;;;;;;4973691;28;20440;-61
2021/05/19 08:35:53;;;;;;;5.60;2.03;;;10.60;84.00;;;;;;4985531;28;20462;-62
2021/05/19 08:38:18;;;;;;;2.60;2.40;;;10.40;86.40;;;;;;4988619;28;20288;-59
2021/05/19 08:40:44;;;;;;;3.80;2.60;;;10.20;90.40;;;;;;4994113;28;20702;-58
2021/05/19 08:43:12;;;;;;;6.50;2.60;;;10.10;91.60;;;;;;4997153;28;20248;-59
2021/05/19 08:45:38;;;;;;;3.97;2.83;;;10.00;92.80;;;;;;4992158;28;20228;-59
2021/05/19 08:48:05;;;;;;;5.20;3.63;;;9.90;94.70;;;;;;5001002;28;20451;-58
2021/05/19 08:50:32;;;;;;;6.33;2.93;;;9.90;95.20;;;;;;4986192;28;20466;-58
2021/05/19 08:52:59;;;;;;;4.60;2.23;;;10.00;94.10;;;;;;4989358;28;20450;-59
2021/05/19 08:55:26;;;;;;;3.00;2.10;;;10.10;95.30;;;;;;4986444;28;20424;-57
2021/05/19 08:57:52;;;;;;;5.20;2.57;;;10.40;95.20;;;;;;4989177;28;20842;-59
2021/05/19 09:00:19;;;;;;;8.70;3.10;;;10.70;95.70;;;;;;4980745;28;20465;-58
2021/05/19 09:03:06;;;;;;;4.87;2.50;;;11.10;95.80;;;;;;4988753;28;20432;-59
2021/05/19 09:05:33;;;;;;;4.23;3.43;;;11.40;93.60;;;;;;4986611;28;20483;-57
2021/05/19 09:08:08;;;;;;;3.00;2.40;;;11.40;91.80;;;;;;4972202;28;20519;-59
2021/05/19 09:10:37;;;;;;;2.90;2.50;;;11.30;91.80;;;;;;4996113;28;20577;-59
2021/05/19 09:13:04;;;;;;;6.90;3.30;;;11.10;90.70;;;;;;4990886;28;20416;-59
2021/05/19 09:15:49;;;;;;;4.10;2.70;;;10.80;91.80;;;;;;4985259;28;20584;-58
2021/05/19 09:18:15;;;;;;;4.80;3.30;;;10.50;94.10;;;;;;4985580;28;20464;-57
2021/05/19 09:20:45;;;;;;;3.20;2.90;;;10.40;94.70;;;;;;4993249;28;20969;-59
2021/05/19 09:23:17;;;;;;;4.33;3.50;;;10.30;95.60;;;;;;4989556;28;20892;-60
2021/05/19 09:25:43;;;;;;;3.93;2.50;;;10.20;96.60;;;;;;4997500;28;20455;-60
2021/05/19 09:28:09;;;;;;;3.77;2.80;;;10.10;97.10;;;;;;4974987;28;20448;-60
2021/05/19 09:30:48;;;;;;;3.03;2.60;;;10.10;97.20;;;;;;5001433;28;20464;-61
2021/05/19 09:33:20;;;;;;;3.33;2.57;;;10.10;97.70;;;;;;4992814;28;20442;-58
2021/05/19 09:36:06;;;;;;;2.70;2.47;;;10.30;97.90;;;;;;4989540;28;20783;-59
2021/05/19 09:38:32;;;;;;;6.27;2.33;;;10.60;97.20;;;;;;4982007;28;20456;-59
2021/05/19 09:41:17;;;;;;;4.00;2.30;;;10.80;96.10;;;;;;4981618;28;20452;-58
2021/05/19 09:43:46;;;;;;;3.20;2.63;;;11.00;95.00;;;;;;4980316;28;20435;-60
2021/05/19 09:48:45;;;;;;;2.60;2.13;;;11.30;94.10;;;;;;4986967;28;20788;-58
2021/05/19 09:51:39;;;;;;;4.73;2.23;;;11.70;92.30;;;;;;4985782;28;20460;-59
2021/05/19 09:54:04;;;;;;;3.27;1.90;;;12.10;91.10;;;;;;4976324;28;20440;-59
2021/05/19 09:56:30;;;;;;;3.87;2.00;;;12.50;90.80;;;;;;4990497;28;20486;-57
2021/05/19 09:58:56;;;;;;;3.80;2.10;;;13.00;90.10;;;;;;4987651;28;20475;-59
2021/05/19 10:01:25;;;;;;;9.50;1.90;;;13.30;84.30;;;;;;4990655;28;20669;-57
2021/05/19 10:03:52;;;;;;;3.33;1.90;;;13.50;79.30;;;;;;4989632;28;20231;-62
2021/05/19 10:06:29;;;;;;;8.80;2.23;;;13.40;74.00;;;;;;4993380;28;20514;-57
2021/05/19 10:08:54;;;;;;;1.87;1.27;;;13.20;70.90;;;;;;5000219;28;20831;-58
2021/05/19 10:11:20;;;;;;;2.10;1.43;;;12.90;63.20;;;;;;4991066;28;20444;-58
2021/05/19 10:13:46;;;;;;;6.07;1.50;;;12.70;58.70;;;;;;4971467;28;20701;-59
2021/05/19 10:16:18;;;;;;;3.20;1.60;;;12.80;57.70;;;;;;4987334;28;20185;-59
2021/05/19 10:18:48;;;;;;;2.90;1.63;;;13.10;61.70;;;;;;4985576;28;20929;-58
2021/05/19 10:21:15;;;;;;;1.30;1.20;;;13.30;56.20;;;;;;4990082;28;20527;-60
2021/05/19 10:24:01;;;;;;;6.20;1.20;;;13.60;55.80;;;;;;4980250;28;20487;-58
2021/05/19 10:26:27;;;;;;;1.13;1.03;;;13.80;53.60;;;;;;4986911;28;20519;-58
2021/05/19 10:28:52;;;;;;;1.23;1.20;;;14.00;52.70;;;;;;4986833;28;20531;-59
2021/05/19 10:31:25;;;;;;;1.63;1.10;;;13.90;49.60;;;;;;4979016;28;20766;-58
2021/05/19 10:33:54;;;;;;;4.73;1.10;;;13.80;49.40;;;;;;4986899;28;20188;-57
2021/05/19 10:36:29;;;;;;;1.43;1.33;;;13.90;50.40;;;;;;4990435;28;20589;-58
2021/05/19 10:39:22;;;;;;;2.27;1.30;;;14.10;48.10;;;;;;4985714;28;20467;-62
2021/05/19 10:41:52;;;;;;;3.57;1.33;;;14.40;48.50;;;;;;4985154;28;20436;-57
2021/05/19 10:44:28;;;;;;;8.87;1.20;;;14.70;48.00;;;;;;4987951;28;20459;-60
2021/05/19 10:47:05;;;;;;;3.97;1.10;;;14.90;45.70;;;;;;4984711;28;20441;-58
2021/05/19 10:49:42;;;;;;;1.20;1.10;;;15.10;46.80;;;;;;4991425;28;20443;-59
2021/05/19 10:52:22;;;;;;;1.17;1.07;;;15.20;46.40;;;;;;4990895;28;20435;-58
2021/05/19 10:57:44;;;;;;;2.10;1.30;;;14.90;45.40;;;;;;4988376;28;20470;-58
2021/05/19 11:00:16;;;;;;;2.00;1.40;;;15.10;46.60;;;;;;4987263;28;20455;-58
2021/05/19 11:02:54;;;;;;;4.80;1.70;;;14.90;47.00;;;;;;4983228;28;20848;-59
2021/05/19 11:05:25;;;;;;;6.30;1.80;;;14.60;48.00;;;;;;4987697;28;20434;-59
2021/05/19 11:10:36;;;;;;;3.07;1.00;;;14.90;43.40;;;;;;4980414;28;20463;-59
2021/05/19 11:13:01;;;;;;;3.43;1.50;;;14.90;39.80;;;;;;4986528;28;20428;-61
2021/05/19 11:20:58;;;;;;;1.23;1.10;;;15.80;43.90;;;;;;4990891;28;20454;-59
2021/05/19 11:23:25;;;;;;;2.00;1.10;;;15.80;40.00;;;;;;4970689;28;20439;-59
2021/05/19 11:25:51;;;;;;;2.23;1.30;;;15.70;41.80;;;;;;4983243;28;21091;-58
2021/05/19 11:28:26;;;;;;;1.10;1.10;;;15.40;41.30;;;;;;4981284;28;20447;-59
2021/05/19 11:31:13;;;;;;;1.20;1.10;;;15.10;41.70;;;;;;4986620;28;20301;-63
2021/05/19 11:33:54;;;;;;;1.20;1.10;;;14.70;41.80;;;;;;4988635;28;20440;-60
2021/05/19 11:36:44;;;;;;;1.90;1.00;;;14.40;44.10;;;;;;5000591;28;20447;-60
2021/05/19 11:39:30;;;;;;;3.27;1.33;;;14.10;45.40;;;;;;4998266;28;20467;-59
2021/05/19 11:42:17;;;;;;;1.20;1.10;;;14.00;45.20;;;;;;4985662;28;20428;-57
2021/05/19 11:44:42;;;;;;;1.07;1.00;;;14.20;45.20;;;;;;4972401;28;20485;-60
2021/05/19 11:47:09;;;;;;;2.90;1.53;;;14.70;43.60;;;;;;4974187;28;21109;-62
2021/05/19 11:49:36;;;;;;;11.70;2.23;;;15.20;41.90;;;;;;4988013;28;20232;-59
2021/05/19 11:52:02;;;;;;;2.57;1.00;;;15.70;42.30;;;;;;4982944;28;20472;-59
2021/05/19 11:54:28;;;;;;;2.30;1.23;;;16.00;42.90;;;;;;4977905;28;20812;-58
2021/05/19 11:57:05;;;;;;;3.17;1.00;;;15.90;41.60;;;;;;4975788;28;20444;-59
2021/05/19 11:59:35;;;;;;;4.00;1.30;;;15.60;42.70;;;;;;4982872;28;20216;-59
2021/05/19 12:02:04;;;;;;;1.50;1.10;;;15.40;44.60;;;;;;4983264;28;21019;-59
2021/05/19 12:04:31;;;;;;;3.73;1.50;;;15.40;46.20;;;;;;4964076;28;20448;-58
2021/05/19 12:07:01;;;;;;;2.80;1.33;;;15.70;48.50;;;;;;4983791;28;20543;-60
2021/05/19 12:09:31;;;;;;;4.40;1.33;;;16.30;48.50;;;;;;4998413;23;20463;-60
2021/05/19 12:12:10;;;;;;;1.23;0.93;;;16.80;47.30;;;;;;4986033;28;20818;-61
2021/05/19 12:14:36;;;;;;;2.53;0.97;;;16.80;44.50;;;;;;4988919;28;20439;-61
2021/05/19 12:17:04;;;;;;;2.67;1.10;;;16.60;44.00;;;;;;4989557;28;20428;-61
2021/05/19 12:19:36;;;;;;;1.17;0.90;;;16.30;43.50;;;;;;4983523;28;20453;-61
2021/05/19 12:22:16;;;;;;;2.40;1.17;;;16.00;43.40;;;;;;5004568;28;20431;-61
2021/05/19 12:24:42;;;;;;;1.73;1.40;;;15.70;43.90;;;;;;5000081;28;21043;-61
2021/05/19 12:27:09;;;;;;;2.00;1.30;;;15.70;44.60;;;;;;4999997;28;20454;-62
2021/05/19 12:29:37;;;;;;;1.00;0.90;;;16.00;44.90;;;;;;5006109;28;20731;-60
2021/05/19 12:32:26;;;;;;;1.53;1.10;;;16.60;45.60;;;;;;5005993;28;20466;-61
2021/05/19 12:35:14;;;;;;;1.80;1.03;;;17.10;44.50;;;;;;4988589;28;20435;-61
2021/05/19 12:37:45;;;;;;;1.67;1.00;;;17.10;43.50;;;;;;5005134;28;21017;-61
2021/05/19 12:40:15;;;;;;;3.20;0.93;;;16.80;42.80;;;;;;4996744;28;20454;-61
2021/05/19 12:42:46;;;;;;;1.13;0.93;;;16.50;43.20;;;;;;5000527;28;20435;-61
2021/05/19 12:45:21;;;;;;;2.53;1.10;;;16.10;43.10;;;;;;5003190;28;21078;-60
2021/05/19 12:48:04;;;;;;;2.20;1.50;;;16.00;44.00;;;;;;5004546;28;20518;-61
2021/05/19 12:50:49;;;;;;;1.67;1.10;;;16.20;45.00;;;;;;5004516;28;20459;-61
2021/05/19 12:53:41;;;;;;;4.80;1.20;;;16.30;44.60;;;;;;5004111;28;20481;-61
2021/05/19 12:56:16;;;;;;;1.43;1.30;;;16.20;44.30;;;;;;4987536;28;21195;-62
2021/05/19 12:59:06;;;;;;;2.20;1.17;;;16.70;44.70;;;;;;5010471;28;20466;-60
2021/05/19 13:01:43;;;;;;;2.90;0.93;;;17.10;43.10;;;;;;5008566;28;21092;-60
2021/05/19 13:04:09;;;;;;;2.60;1.37;;;16.90;42.00;;;;;;4998672;28;20435;-60
2021/05/19 13:06:35;;;;;;;1.10;1.00;;;16.60;41.30;;;;;;4997376;28;20444;-61
2021/05/19 13:21:46;;;;;;;1.37;0.90;;;15.80;40.60;;;;;;5376613;23;20900;-62
2021/05/19 13:24:16;;;;;;;3.27;1.20;;;15.60;39.40;;;;;;5024989;28;20434;-61
2021/05/19 13:27:13;;;;;;;1.33;1.23;;;15.40;39.70;;;;;;5028910;28;20423;-60
2021/05/19 13:29:40;;;;;;;2.50;1.20;;;15.20;39.90;;;;;;5023772;28;20433;-60
2021/05/19 13:32:22;;;;;;;1.57;1.07;;;15.40;41.90;;;;;;5021296;28;20460;-61